createdAt,value
2023-03-26T00:01:39.337Z,92980.88
2023-03-26T00:04:10.513Z,93002.16
2023-03-26T00:06:40.603Z,92995.44
2023-03-26T00:09:15.797Z,93010.09
2023-03-26T00:11:46.457Z,93014.31
2023-03-26T00:14:17.869Z,93003.88
2023-03-26T00:16:47.815Z,93026.75
2023-03-26T00:19:15.952Z,93007.00
2023-03-26T00:21:44.122Z,93005.09
2023-03-26T00:24:15.480Z,93025.06
2023-03-26T00:26:44.947Z,93024.81
2023-03-26T00:29:15.758Z,93003.81
2023-03-26T00:31:46.731Z,93010.44
2023-03-26T00:34:18.783Z,93012.81
2023-03-26T00:36:47.391Z,93000.88
2023-03-26T00:39:18.123Z,93003.59
2023-03-26T00:41:46.084Z,92995.13
2023-03-26T00:44:13.977Z,92992.69
2023-03-26T00:46:42.911Z,92989.34
2023-03-26T00:49:14.920Z,92987.44
2023-03-26T00:51:42.972Z,93001.03
2023-03-26T00:54:12.319Z,92991.16
2023-03-26T00:56:40.568Z,93000.47
2023-03-26T00:59:09.458Z,92994.66
2023-03-26T01:01:37.985Z,93002.47
2023-03-26T01:04:39.985Z,92997.19
2023-03-26T01:07:17.048Z,93002.34
2023-03-26T01:09:50.531Z,93009.31
2023-03-26T01:12:22.737Z,93001.63
2023-03-26T01:14:53.220Z,93007.25
2023-03-26T01:17:22.365Z,93008.31
2023-03-26T01:19:50.713Z,93003.78
2023-03-26T01:22:27.219Z,92997.66
2023-03-26T01:24:56.862Z,92997.66
2023-03-26T01:28:09.069Z,93010.38
2023-03-26T01:31:02.646Z,92999.44
2023-03-26T01:33:59.332Z,93000.28
2023-03-26T01:36:52.622Z,93019.16
2023-03-26T01:39:53.371Z,93010.88
2023-03-26T01:42:41.911Z,93005.84
2023-03-26T01:45:21.709Z,92990.38
2023-03-26T01:47:50.729Z,93013.09
2023-03-26T01:50:18.498Z,93012.00
2023-03-26T01:52:46.252Z,93009.25
2023-03-26T01:55:14.601Z,93015.06
2023-03-26T01:58:01.108Z,93006.38
2023-03-26T02:00:32.965Z,93005.59
2023-03-26T02:03:27.304Z,93013.84
2023-03-26T02:06:16.572Z,93012.72
2023-03-26T02:09:14.935Z,93014.91
2023-03-26T02:11:45.477Z,93010.84
2023-03-26T02:14:15.084Z,93006.88
2023-03-26T02:16:47.201Z,93005.78
2023-03-26T02:19:22.048Z,93015.00
2023-03-26T02:21:59.889Z,93007.47
2023-03-26T02:24:29.908Z,93019.63
2023-03-26T02:27:02.497Z,93011.03
2023-03-26T02:29:30.549Z,93010.97
2023-03-26T02:31:58.715Z,93006.16
2023-03-26T02:34:26.768Z,93005.88
2023-03-26T02:36:57.376Z,93003.13
2023-03-26T02:39:27.831Z,92983.13
2023-03-26T02:41:59.430Z,92995.38
2023-03-26T02:44:28.716Z,92993.72
2023-03-26T02:47:16.870Z,92998.72
2023-03-26T02:49:54.189Z,93008.84
2023-03-26T02:52:43.221Z,93011.78
2023-03-26T02:56:35.894Z,93014.31
2023-03-26T02:59:39.585Z,93029.28
2023-03-26T03:02:29.642Z,93027.84
2023-03-26T03:05:08.806Z,93036.34
2023-03-26T03:07:38.785Z,93034.50
2023-03-26T03:10:11.041Z,93029.38
2023-03-26T03:13:15.228Z,93046.50
2023-03-26T03:15:43.215Z,93046.63
2023-03-26T03:18:11.321Z,93042.78
2023-03-26T03:20:39.413Z,93053.91
2023-03-26T03:23:07.459Z,93055.22
2023-03-26T03:25:35.703Z,93059.00
2023-03-26T03:28:04.080Z,93060.34
2023-03-26T03:30:32.337Z,93060.38
2023-03-26T03:33:36.094Z,93052.41
2023-03-26T03:36:20.797Z,93057.69
2023-03-26T03:39:02.938Z,93030.41
2023-03-26T03:41:32.730Z,93069.22
2023-03-26T03:44:03.373Z,93075.88
2023-03-26T03:46:33.494Z,93070.56
2023-03-26T03:49:01.548Z,93071.81
2023-03-26T03:51:35.385Z,93069.63
2023-03-26T03:54:06.279Z,93072.75
2023-03-26T03:56:47.525Z,93075.59
2023-03-26T04:00:00.473Z,93077.47
2023-03-26T04:02:35.085Z,93077.13
2023-03-26T04:05:07.634Z,93085.09
2023-03-26T04:07:39.660Z,93086.41
2023-03-26T04:10:27.750Z,93081.16
2023-03-26T04:13:15.470Z,93095.25
2023-03-26T04:16:04.601Z,93101.91
2023-03-26T04:18:32.831Z,93101.72
2023-03-26T04:21:08.043Z,93103.78
2023-03-26T04:23:36.693Z,93119.19
2023-03-26T04:26:17.816Z,93124.94
2023-03-26T04:29:12.352Z,93131.91
2023-03-26T04:31:40.611Z,93131.34
2023-03-26T04:34:18.708Z,93137.06
2023-03-26T04:36:57.097Z,93138.72
2023-03-26T04:39:30.061Z,93150.72
2023-03-26T04:42:20.166Z,93150.22
2023-03-26T04:45:03.400Z,93151.56
2023-03-26T04:47:32.763Z,93157.44
2023-03-26T04:50:00.981Z,93169.59
2023-03-26T04:52:29.012Z,93170.97
2023-03-26T04:55:00.176Z,93159.59
2023-03-26T04:57:42.993Z,93158.84
2023-03-26T05:00:20.520Z,93164.00
2023-03-26T05:02:56.270Z,93156.56
2023-03-26T05:05:26.276Z,93175.06
2023-03-26T05:07:56.669Z,93184.44
2023-03-26T05:10:25.114Z,93165.78
2023-03-26T05:13:05.678Z,93171.50
2023-03-26T05:15:37.027Z,93169.53
2023-03-26T05:18:16.310Z,93169.25
2023-03-26T05:20:49.089Z,93179.19
2023-03-26T05:23:17.261Z,93183.94
2023-03-26T05:25:50.978Z,93182.31
2023-03-26T05:28:24.666Z,93186.28
2023-03-26T05:31:03.175Z,93175.56
2023-03-26T05:33:36.437Z,93189.50
2023-03-26T05:36:15.948Z,93195.19
2023-03-26T05:39:04.406Z,93191.13
2023-03-26T05:42:02.504Z,93180.59
2023-03-26T05:44:42.672Z,93188.56
2023-03-26T05:47:19.380Z,93189.22
2023-03-26T05:49:47.442Z,93184.44
2023-03-26T05:52:19.108Z,93206.28
2023-03-26T05:55:10.614Z,93199.66
2023-03-26T05:57:57.313Z,93208.84
2023-03-26T06:00:49.037Z,93210.06
2023-03-26T06:03:31.049Z,93223.69
2023-03-26T06:06:19.540Z,93210.47
2023-03-26T06:09:01.975Z,93212.31
2023-03-26T06:11:32.553Z,93211.06
2023-03-26T06:14:02.316Z,93199.41
2023-03-26T06:16:31.016Z,93200.31
2023-03-26T06:19:18.018Z,93208.56
2023-03-26T06:21:48.996Z,93202.53
2023-03-26T06:24:22.053Z,93197.22
2023-03-26T06:27:08.550Z,93200.25
2023-03-26T06:29:55.464Z,93195.44
2023-03-26T06:32:46.633Z,93200.56
2023-03-26T06:35:21.495Z,93191.75
2023-03-26T06:37:49.498Z,93175.47
2023-03-26T06:40:17.395Z,93205.91
2023-03-26T06:43:11.158Z,93202.44
2023-03-26T06:45:54.741Z,93191.69
2023-03-26T06:48:42.431Z,93176.84
2023-03-26T06:51:32.944Z,93174.38
2023-03-26T06:54:39.169Z,93168.66
2023-03-26T06:57:25.763Z,93167.47
2023-03-26T07:00:29.108Z,93172.63
2023-03-26T07:03:29.877Z,93174.75
2023-03-26T07:06:18.140Z,93183.88
2023-03-26T07:09:04.816Z,93184.91
2023-03-26T07:11:54.260Z,93183.25
2023-03-26T07:14:43.363Z,93190.44
2023-03-26T07:17:31.834Z,93199.94
2023-03-26T07:20:06.835Z,93198.06
2023-03-26T07:22:36.538Z,93195.81
2023-03-26T07:25:08.767Z,93190.22
2023-03-26T07:28:00.256Z,93187.28
2023-03-26T07:31:39.277Z,93178.44
2023-03-26T07:35:02.124Z,93174.13
2023-03-26T07:38:28.790Z,93174.44
2023-03-26T07:41:51.870Z,93165.78
2023-03-26T07:44:53.258Z,93163.03
2023-03-26T07:47:45.643Z,93159.28
2023-03-26T07:50:32.485Z,93170.69
2023-03-26T07:53:09.850Z,93164.47
2023-03-26T07:56:27.276Z,93167.91
2023-03-26T07:59:56.051Z,93159.53
2023-03-26T08:03:24.724Z,93156.34
2023-03-26T08:06:14.976Z,93175.03
2023-03-26T08:09:32.929Z,93158.72
2023-03-26T08:12:19.432Z,93149.44
2023-03-26T08:14:53.788Z,93136.53
2023-03-26T08:17:48.322Z,93138.25
2023-03-26T08:20:44.142Z,93132.94
2023-03-26T08:23:33.862Z,93139.97
2023-03-26T08:26:44.731Z,93137.78
2023-03-26T08:29:22.016Z,93149.09
2023-03-26T08:31:51.613Z,93139.44
2023-03-26T08:34:20.111Z,93138.66
2023-03-26T08:36:48.701Z,93141.53
2023-03-26T08:39:17.447Z,93151.78
2023-03-26T08:42:19.640Z,93145.19
2023-03-26T08:45:39.414Z,93148.56
2023-03-26T08:48:41.328Z,93156.53
2023-03-26T08:51:32.383Z,93157.44
2023-03-26T08:54:06.501Z,93154.34
2023-03-26T08:56:53.385Z,93149.47
2023-03-26T08:59:39.647Z,93149.34
2023-03-26T09:02:26.937Z,93148.00
2023-03-26T09:05:19.198Z,93143.16
2023-03-26T09:08:25.006Z,93150.13
2023-03-26T09:10:59.566Z,93147.56
2023-03-26T09:13:46.363Z,93147.56
2023-03-26T09:16:39.095Z,93148.19
2023-03-26T09:19:55.325Z,93157.22
2023-03-26T09:22:29.220Z,93142.91
2023-03-26T09:25:25.659Z,93139.59
2023-03-26T09:28:11.743Z,93144.31
2023-03-26T09:31:10.372Z,93144.28
2023-03-26T09:34:06.079Z,93146.81
2023-03-26T09:36:41.301Z,93139.22
2023-03-26T09:39:11.141Z,93142.41
2023-03-26T09:41:49.302Z,93140.59
2023-03-26T09:44:17.849Z,93144.19
2023-03-26T09:47:22.645Z,93134.50
2023-03-26T09:50:16.497Z,93125.72
2023-03-26T09:52:44.761Z,93132.00
2023-03-26T09:55:27.852Z,93136.53
2023-03-26T09:58:14.225Z,93131.28
2023-03-26T10:00:52.894Z,93137.13
2023-03-26T10:03:41.875Z,93128.72
2023-03-26T10:06:23.021Z,93117.91
2023-03-26T10:08:56.953Z,93117.59
2023-03-26T10:11:43.273Z,93125.84
2023-03-26T10:14:20.342Z,93133.31
2023-03-26T10:17:27.501Z,93119.34
2023-03-26T10:20:10.023Z,93122.75
2023-03-26T10:23:07.774Z,93114.66
2023-03-26T10:25:53.436Z,93107.78
2023-03-26T10:28:46.450Z,93071.19
2023-03-26T10:31:47.612Z,93099.78
2023-03-26T10:35:04.118Z,93100.28
2023-03-26T10:37:37.538Z,93087.63
2023-03-26T10:40:24.234Z,93088.41
2023-03-26T10:43:14.179Z,93083.13
2023-03-26T10:46:11.351Z,93071.47
2023-03-26T10:49:03.828Z,93065.16
2023-03-26T10:51:53.872Z,93042.25
2023-03-26T10:54:36.495Z,93064.59
2023-03-26T10:57:23.003Z,93054.06
2023-03-26T10:59:55.788Z,93065.75
2023-03-26T11:02:37.158Z,93071.16
2023-03-26T11:05:36.398Z,93056.38
2023-03-26T11:08:08.526Z,93040.56
2023-03-26T11:11:01.707Z,93058.31
2023-03-26T11:13:46.397Z,93060.06
2023-03-26T11:16:32.765Z,93054.34
2023-03-26T11:19:21.340Z,93046.41
2023-03-26T11:22:09.818Z,93043.63
2023-03-26T11:24:59.834Z,93023.38
2023-03-26T11:27:37.285Z,93047.19
2023-03-26T11:30:18.332Z,93035.84
2023-03-26T11:33:00.106Z,93033.16
2023-03-26T11:35:41.081Z,93024.16
2023-03-26T11:38:17.066Z,93023.41
2023-03-26T11:40:51.220Z,93035.63
2023-03-26T11:43:46.515Z,93027.28
2023-03-26T11:46:18.253Z,93040.59
2023-03-26T11:49:11.652Z,93034.03
2023-03-26T11:51:46.051Z,93013.50
2023-03-26T11:54:15.622Z,93012.13
2023-03-26T11:57:05.547Z,93000.84
2023-03-26T11:59:56.293Z,92991.38
2023-03-26T12:02:36.117Z,92959.97
2023-03-26T12:05:12.482Z,92973.56
2023-03-26T12:07:52.691Z,92968.25
2023-03-26T12:10:29.874Z,92965.53
2023-03-26T12:13:01.967Z,92929.91
2023-03-26T12:15:32.601Z,92926.19
2023-03-26T12:18:24.055Z,92917.19
2023-03-26T12:21:13.818Z,92948.22
2023-03-26T12:24:03.044Z,92952.38
2023-03-26T12:26:41.947Z,92941.66
2023-03-26T12:29:18.449Z,92926.88
2023-03-26T12:31:51.131Z,92890.91
2023-03-26T12:34:22.323Z,92935.84
2023-03-26T12:36:58.883Z,92929.50
2023-03-26T12:40:11.233Z,92919.13
2023-03-26T12:44:46.087Z,92920.63
2023-03-26T12:45:41.062Z,92914.53
2023-03-26T12:48:16.688Z,92915.63
2023-03-26T12:51:08.539Z,92912.34
2023-03-26T12:53:56.068Z,92904.53
2023-03-26T12:57:12.180Z,92894.81
2023-03-26T12:59:53.457Z,92904.41
2023-03-26T13:02:40.090Z,92902.19
2023-03-26T13:05:33.051Z,92898.53
2023-03-26T13:08:40.005Z,92892.19
2023-03-26T13:11:19.967Z,92890.75
2023-03-26T13:13:56.697Z,92889.78
2023-03-26T13:16:42.981Z,92879.47
2023-03-26T13:19:23.970Z,92887.41
2023-03-26T13:22:18.010Z,92876.91
2023-03-26T13:25:21.052Z,92875.28
2023-03-26T13:28:12.450Z,92874.13
2023-03-26T13:30:40.889Z,92872.16
2023-03-26T13:33:37.414Z,92862.41
2023-03-26T13:36:25.121Z,92861.63
2023-03-26T13:39:19.146Z,92871.63
2023-03-26T13:42:22.743Z,92863.38
2023-03-26T13:45:28.100Z,92829.78
2023-03-26T13:47:59.586Z,92869.56
2023-03-26T13:50:33.342Z,92874.47
2023-03-26T13:53:07.893Z,92870.88
2023-03-26T13:55:41.592Z,92867.53
2023-03-26T13:58:36.656Z,92861.31
2023-03-26T14:01:36.717Z,92855.25
2023-03-26T14:04:27.112Z,92864.81
2023-03-26T14:07:16.220Z,92864.50
2023-03-26T14:09:54.747Z,92867.69
2023-03-26T14:12:52.134Z,92855.16
2023-03-26T14:15:42.153Z,92861.84
2023-03-26T14:18:30.593Z,92859.13
2023-03-26T14:21:17.044Z,92844.47
2023-03-26T14:24:24.115Z,92849.38
2023-03-26T14:26:58.818Z,92836.97
2023-03-26T14:30:04.348Z,92844.47
2023-03-26T14:32:58.993Z,92828.34
2023-03-26T14:35:54.708Z,92841.47
2023-03-26T14:38:34.191Z,92839.91
2023-03-26T14:41:50.065Z,92835.16
2023-03-26T14:44:49.059Z,92839.75
2023-03-26T14:47:20.537Z,92835.16
2023-03-26T14:50:10.300Z,92835.31
2023-03-26T14:52:48.062Z,92833.28
2023-03-26T14:55:45.132Z,92806.47
2023-03-26T14:58:34.586Z,92827.31
2023-03-26T15:01:28.443Z,92843.34
2023-03-26T15:04:17.787Z,92830.19
2023-03-26T15:07:30.614Z,92815.53
2023-03-26T15:10:36.107Z,92847.19
2023-03-26T15:13:22.404Z,92850.06
2023-03-26T15:16:17.838Z,92848.66
2023-03-26T15:18:46.634Z,92846.44
2023-03-26T15:21:42.376Z,92852.34
2023-03-26T15:24:30.901Z,92847.13
2023-03-26T15:27:37.676Z,92839.19
2023-03-26T15:30:42.963Z,92852.03
2023-03-26T15:33:20.092Z,92848.38
2023-03-26T15:36:47.833Z,92849.16
2023-03-26T15:39:38.499Z,92847.50
2023-03-26T15:42:46.060Z,92849.47
2023-03-26T15:45:18.692Z,92854.97
2023-03-26T15:48:12.054Z,92852.84
2023-03-26T15:50:46.863Z,92854.00
2023-03-26T15:53:30.290Z,92855.97
2023-03-26T15:56:07.823Z,92851.88
2023-03-26T15:58:57.767Z,92859.25
2023-03-26T16:02:03.053Z,92863.56
2023-03-26T16:04:50.403Z,92858.38
2023-03-26T16:07:41.689Z,92860.88
2023-03-26T16:10:35.403Z,92859.59
2023-03-26T16:13:33.221Z,92863.38
2023-03-26T16:16:04.548Z,92868.09
2023-03-26T16:19:28.879Z,92832.72
2023-03-26T16:22:51.664Z,92871.13
2023-03-26T16:25:30.631Z,92883.19
2023-03-26T16:28:22.598Z,92882.53
2023-03-26T16:31:23.673Z,92886.53
2023-03-26T16:34:09.403Z,92883.13
2023-03-26T16:36:43.113Z,92888.63
2023-03-26T16:39:22.603Z,92891.59
2023-03-26T16:42:39.753Z,92896.44
2023-03-26T16:45:34.728Z,92893.88
2023-03-26T16:48:05.899Z,92905.06
2023-03-26T16:50:53.324Z,92898.56
2023-03-26T16:53:41.935Z,92898.31
2023-03-26T16:56:26.304Z,92898.41
2023-03-26T16:59:00.923Z,92905.53
2023-03-26T17:01:52.428Z,92901.56
2023-03-26T17:04:27.804Z,92910.97
2023-03-26T17:07:14.219Z,92915.69
2023-03-26T17:10:16.163Z,92919.72
2023-03-26T17:12:51.750Z,92920.19
2023-03-26T17:15:25.839Z,92922.31
2023-03-26T17:17:57.329Z,92927.69
2023-03-26T17:20:44.252Z,92932.66
2023-03-26T17:23:26.333Z,92932.66
2023-03-26T17:26:28.649Z,92938.66
2023-03-26T17:29:10.116Z,92931.50
2023-03-26T17:32:15.054Z,92941.47
2023-03-26T17:34:57.137Z,92936.09
2023-03-26T17:37:32.132Z,92946.69
2023-03-26T17:40:13.157Z,92934.88
2023-03-26T17:43:02.479Z,92940.22
2023-03-26T17:45:35.720Z,92939.19
2023-03-26T17:48:19.354Z,92941.06
2023-03-26T17:50:54.297Z,92939.06
2023-03-26T17:53:22.710Z,92940.97
2023-03-26T17:55:52.436Z,92946.09
2023-03-26T17:58:27.408Z,92936.56
2023-03-26T18:01:06.417Z,92927.59
2023-03-26T18:03:45.348Z,92930.63
2023-03-26T18:06:30.717Z,92937.69
2023-03-26T18:09:34.842Z,92938.56
2023-03-26T18:12:24.222Z,92942.84
2023-03-26T18:14:58.070Z,92937.56
2023-03-26T18:17:26.613Z,92941.28
2023-03-26T18:20:07.038Z,92936.75
2023-03-26T18:22:35.888Z,92937.31
2023-03-26T18:25:04.765Z,92938.09
2023-03-26T18:27:41.767Z,92935.72
2023-03-26T18:30:16.115Z,92932.28
2023-03-26T18:32:53.109Z,92935.78
2023-03-26T18:35:23.444Z,92937.66
2023-03-26T18:37:55.105Z,92930.19
2023-03-26T18:40:26.301Z,92928.06
2023-03-26T18:42:58.666Z,92928.59
2023-03-26T18:45:30.251Z,92914.47
2023-03-26T18:48:02.859Z,92908.59
2023-03-26T18:50:42.492Z,92900.34
2023-03-26T18:53:24.105Z,92900.59
2023-03-26T18:55:53.107Z,92907.53
2023-03-26T18:58:26.207Z,92914.19
2023-03-26T19:01:01.254Z,92913.38
2023-03-26T19:03:35.898Z,92907.34
2023-03-26T19:06:10.910Z,92902.78
2023-03-26T19:08:41.100Z,92906.13
2023-03-26T19:11:12.620Z,92901.38
2023-03-26T19:13:44.432Z,92897.50
2023-03-26T19:16:23.407Z,92901.28
2023-03-26T19:18:52.981Z,92887.69
2023-03-26T19:21:23.780Z,92891.38
2023-03-26T19:23:53.337Z,92888.13
2023-03-26T19:26:22.605Z,92884.97
2023-03-26T19:28:54.735Z,92888.13
2023-03-26T19:31:28.332Z,92880.16
2023-03-26T19:34:09.952Z,92879.56
2023-03-26T19:36:58.494Z,92887.28
2023-03-26T19:39:43.065Z,92884.88
2023-03-26T19:42:16.489Z,92890.19
2023-03-26T19:44:45.629Z,92876.59
2023-03-26T19:47:29.271Z,92882.41
2023-03-26T19:50:35.538Z,92879.13
2023-03-26T19:53:25.887Z,92873.28
2023-03-26T19:56:16.385Z,92877.03
2023-03-26T19:58:45.460Z,92873.84
2023-03-26T20:01:17.288Z,92865.31
2023-03-26T20:03:48.791Z,92862.94
2023-03-26T20:06:23.695Z,92867.94
2023-03-26T20:08:56.915Z,92874.84
2023-03-26T20:11:33.823Z,92864.97
2023-03-26T20:14:03.110Z,92868.59
2023-03-26T20:16:33.800Z,92881.00
2023-03-26T20:19:05.288Z,92867.50
2023-03-26T20:21:34.924Z,92863.19
2023-03-26T20:24:11.112Z,92860.19
2023-03-26T20:26:39.614Z,92857.03
2023-03-26T20:29:08.136Z,92860.50
2023-03-26T20:31:38.119Z,92858.28
2023-03-26T20:34:14.160Z,92850.31
2023-03-26T20:36:42.808Z,92849.25
2023-03-26T20:39:11.530Z,92846.81
2023-03-26T20:41:50.246Z,92849.38
2023-03-26T20:44:21.547Z,92848.84
2023-03-26T20:46:50.247Z,92838.31
2023-03-26T20:49:19.028Z,92852.84
2023-03-26T20:51:47.898Z,92851.22
2023-03-26T20:54:19.384Z,92840.31
2023-03-26T20:56:49.435Z,92843.72
2023-03-26T20:59:22.316Z,92851.97
2023-03-26T21:01:51.386Z,92846.84
2023-03-26T21:04:19.757Z,92849.50
2023-03-26T21:06:48.910Z,92842.84
2023-03-26T21:09:23.953Z,92839.63
2023-03-26T21:12:01.689Z,92832.34
2023-03-26T21:14:40.507Z,92829.34
2023-03-26T21:17:18.339Z,92829.53
2023-03-26T21:19:47.346Z,92831.44
2023-03-26T21:22:43.973Z,92824.34
2023-03-26T21:25:37.724Z,92820.06
2023-03-26T21:28:29.145Z,92818.13
2023-03-26T21:31:18.648Z,92816.75
2023-03-26T21:33:48.154Z,92813.31
2023-03-26T21:36:18.832Z,92814.59
2023-03-26T21:38:47.250Z,92811.38
2023-03-26T21:41:23.901Z,92802.97
2023-03-26T21:43:52.039Z,92787.53
2023-03-26T21:46:20.491Z,92797.75
2023-03-26T21:48:48.949Z,92802.16
2023-03-26T21:51:19.629Z,92793.56
2023-03-26T21:53:49.084Z,92791.09
2023-03-26T21:56:45.714Z,92790.63
2023-03-26T21:59:22.477Z,92783.47
2023-03-26T22:02:14.032Z,92782.06
2023-03-26T22:05:12.182Z,92758.03
2023-03-26T22:07:59.963Z,92762.91
2023-03-26T22:10:29.047Z,92761.44
2023-03-26T22:12:57.538Z,92752.97
2023-03-26T22:15:31.354Z,92752.41
2023-03-26T22:18:03.848Z,92744.66
2023-03-26T22:20:33.877Z,92739.31
2023-03-26T22:23:02.121Z,92746.06
2023-03-26T22:25:30.552Z,92746.31
2023-03-26T22:28:17.835Z,92742.56
2023-03-26T22:30:46.490Z,92743.91
2023-03-26T22:33:14.477Z,92743.72
2023-03-26T22:35:43.326Z,92739.22
2023-03-26T22:38:11.933Z,92732.59
2023-03-26T22:40:39.839Z,92729.47
2023-03-26T22:43:07.930Z,92720.28
2023-03-26T22:45:37.744Z,92722.34
2023-03-26T22:48:05.973Z,92709.03
2023-03-26T22:50:33.836Z,92697.03
2023-03-26T22:53:01.853Z,92693.84
2023-03-26T22:55:30.147Z,92687.13
2023-03-26T22:57:58.268Z,92702.63
2023-03-26T23:00:26.617Z,92690.91
2023-03-26T23:03:14.848Z,92695.91
2023-03-26T23:05:42.948Z,92687.06
2023-03-26T23:08:11.922Z,92674.75
2023-03-26T23:10:42.761Z,92684.31
2023-03-26T23:13:10.675Z,92675.34
2023-03-26T23:15:40.609Z,92669.00
2023-03-26T23:18:08.669Z,92667.88
2023-03-26T23:20:39.605Z,92670.59
2023-03-26T23:23:07.818Z,92659.56
2023-03-26T23:25:36.633Z,92668.91
2023-03-26T23:28:04.966Z,92659.66
2023-03-26T23:30:32.996Z,92651.25
2023-03-26T23:33:01.931Z,92653.44
2023-03-26T23:35:29.826Z,92654.59
2023-03-26T23:37:57.590Z,92644.91
2023-03-26T23:40:25.654Z,92645.56
2023-03-26T23:42:53.473Z,92634.66
2023-03-26T23:45:21.538Z,92636.81
2023-03-26T23:47:49.459Z,92629.13
2023-03-26T23:50:18.184Z,92610.59
2023-03-26T23:52:46.201Z,92614.44
2023-03-26T23:55:14.071Z,92606.50
2023-03-26T23:57:43.350Z,92603.91
